createdAt,value
2018-03-25T00:00:34.570Z,55.43
2018-03-25T00:03:03.674Z,54.67
2018-03-25T00:05:32.022Z,52.07
2018-03-25T00:08:00.359Z,57.00
2018-03-25T00:10:28.690Z,55.33
2018-03-25T00:12:57.062Z,52.60
2018-03-25T00:15:25.383Z,53.60
2018-03-25T00:17:54.491Z,57.87
2018-03-25T00:20:23.585Z,53.83
2018-03-25T00:22:51.929Z,52.90
2018-03-25T00:25:20.279Z,51.60
2018-03-25T00:27:48.645Z,53.50
2018-03-25T00:30:17.768Z,56.60
2018-03-25T00:32:46.101Z,56.07
2018-03-25T00:35:15.225Z,57.53
2018-03-25T00:37:43.555Z,55.30
2018-03-25T00:40:11.897Z,53.00
2018-03-25T00:42:40.247Z,58.93
2018-03-25T00:45:08.588Z,55.90
2018-03-25T00:47:36.944Z,56.90
2018-03-25T00:50:05.267Z,54.70
2018-03-25T00:52:33.589Z,51.23
2018-03-25T00:55:02.691Z,56.00
2018-03-25T00:57:31.812Z,56.30
2018-03-25T01:00:00.893Z,55.63
2018-03-25T01:02:30.021Z,52.97
2018-03-25T01:04:58.369Z,56.90
2018-03-25T01:07:27.461Z,61.50
2018-03-25T01:09:56.579Z,60.63
2018-03-25T01:12:25.679Z,62.50
2018-03-25T01:14:54.796Z,59.53
2018-03-25T01:17:23.134Z,57.43
2018-03-25T01:19:52.243Z,58.60
2018-03-25T01:22:20.568Z,58.97
2018-03-25T01:24:48.935Z,57.90
2018-03-25T01:27:17.285Z,54.70
2018-03-25T01:29:46.377Z,53.10
2018-03-25T01:32:14.722Z,55.13
2018-03-25T01:34:43.125Z,58.60
2018-03-25T01:37:11.463Z,57.70
2018-03-25T01:39:39.871Z,60.87
2018-03-25T01:42:08.225Z,57.20
2018-03-25T01:44:37.300Z,54.73
2018-03-25T01:47:05.641Z,61.37
2018-03-25T01:49:34.000Z,60.57
2018-03-25T01:52:02.333Z,57.60
2018-03-25T01:54:30.684Z,57.93
2018-03-25T01:56:59.018Z,62.07
2018-03-25T01:59:27.351Z,61.50
2018-03-25T02:01:56.491Z,58.90
2018-03-25T02:04:25.621Z,67.90
2018-03-25T02:06:54.705Z,63.83
2018-03-25T02:09:23.809Z,63.57
2018-03-25T02:11:52.921Z,60.70
2018-03-25T02:14:22.005Z,56.83
2018-03-25T02:16:51.145Z,59.93
2018-03-25T02:19:19.529Z,58.13
2018-03-25T02:21:47.863Z,58.70
2018-03-25T02:24:16.241Z,56.60
2018-03-25T02:26:44.596Z,59.00
2018-03-25T02:29:12.962Z,62.60
2018-03-25T02:31:41.341Z,57.63
2018-03-25T02:34:09.724Z,58.70
2018-03-25T02:36:38.113Z,60.97
2018-03-25T02:39:06.468Z,59.07
2018-03-25T02:41:35.576Z,62.00
2018-03-25T02:44:03.900Z,56.27
2018-03-25T02:49:06.750Z,59.20
2018-03-25T02:51:35.883Z,58.93
2018-03-25T02:54:04.230Z,62.60
2018-03-25T02:56:33.423Z,59.83
2018-03-25T02:59:01.740Z,57.03
2018-03-25T03:01:30.080Z,57.70
2018-03-25T03:03:58.430Z,59.07
2018-03-25T03:06:26.745Z,63.37
2018-03-25T03:08:55.117Z,64.37
2018-03-25T03:11:23.452Z,60.77
2018-03-25T03:13:51.753Z,55.43
2018-03-25T03:16:20.069Z,56.30
2018-03-25T03:18:48.467Z,57.10
2018-03-25T03:21:16.829Z,55.67
2018-03-25T03:23:45.188Z,57.60
2018-03-25T03:26:13.530Z,54.83
2018-03-25T03:28:41.879Z,56.50
2018-03-25T03:31:10.226Z,53.03
2018-03-25T03:33:38.572Z,51.30
2018-03-25T03:36:07.641Z,53.10
2018-03-25T03:38:36.789Z,55.87
2018-03-25T03:41:05.105Z,56.23
2018-03-25T03:43:33.459Z,52.17
2018-03-25T03:46:01.782Z,54.47
2018-03-25T03:48:30.143Z,54.47
2018-03-25T03:50:58.507Z,53.47
2018-03-25T03:53:26.841Z,48.07
2018-03-25T03:55:55.165Z,53.80
2018-03-25T03:58:23.573Z,56.50
2018-03-25T04:00:51.932Z,55.50
2018-03-25T04:03:20.257Z,53.57
2018-03-25T04:05:48.591Z,51.10
2018-03-25T04:08:17.710Z,55.03
2018-03-25T04:10:46.097Z,54.70
2018-03-25T04:13:14.477Z,51.67
2018-03-25T04:15:42.849Z,52.60
2018-03-25T04:18:11.261Z,53.63
2018-03-25T04:20:39.591Z,52.00
2018-03-25T04:23:07.913Z,53.70
2018-03-25T04:25:36.261Z,50.53
2018-03-25T04:28:04.727Z,52.07
2018-03-25T04:30:33.058Z,53.63
2018-03-25T04:33:01.393Z,49.90
2018-03-25T04:35:29.738Z,51.67
2018-03-25T04:37:58.081Z,54.67
2018-03-25T04:40:27.200Z,57.80
2018-03-25T04:42:55.543Z,57.97
2018-03-25T04:45:24.669Z,56.63
2018-03-25T04:47:53.059Z,58.57
2018-03-25T04:50:21.444Z,58.17
2018-03-25T04:52:51.069Z,61.50
2018-03-25T04:55:19.411Z,60.57
2018-03-25T04:57:47.737Z,60.83
2018-03-25T05:00:16.043Z,57.60
2018-03-25T05:02:44.382Z,58.63
2018-03-25T05:05:13.478Z,56.17
2018-03-25T05:07:41.856Z,59.70
2018-03-25T05:10:10.951Z,56.40
2018-03-25T05:12:40.049Z,59.27
2018-03-25T05:15:09.157Z,59.10
2018-03-25T05:17:38.263Z,64.43
2018-03-25T05:20:07.373Z,61.13
2018-03-25T05:22:35.698Z,64.93
2018-03-25T05:25:04.801Z,70.10
2018-03-25T05:27:33.127Z,67.67
2018-03-25T05:30:02.239Z,69.10
2018-03-25T05:32:30.573Z,70.63
2018-03-25T05:34:58.891Z,70.37
2018-03-25T05:37:27.990Z,62.77
2018-03-25T05:39:57.084Z,71.27
2018-03-25T05:42:26.189Z,65.77
2018-03-25T05:44:55.304Z,71.03
2018-03-25T05:47:23.700Z,69.63
2018-03-25T05:49:52.037Z,69.40
2018-03-25T05:52:20.466Z,69.00
2018-03-25T05:54:48.859Z,67.83
2018-03-25T05:57:17.239Z,71.47
2018-03-25T05:59:45.558Z,68.67
2018-03-25T06:02:13.869Z,68.43
2018-03-25T06:04:42.967Z,62.77
2018-03-25T06:07:12.109Z,60.90
2018-03-25T06:09:40.431Z,64.33
2018-03-25T06:12:08.759Z,62.47
2018-03-25T06:14:37.101Z,62.90
2018-03-25T06:17:05.434Z,61.30
2018-03-25T06:19:33.775Z,59.10
2018-03-25T06:22:02.881Z,56.80
2018-03-25T06:24:31.976Z,55.63
2018-03-25T06:27:01.069Z,55.10
2018-03-25T06:29:29.459Z,56.73
2018-03-25T06:31:57.805Z,55.83
2018-03-25T06:34:26.138Z,53.33
2018-03-25T06:36:55.357Z,55.20
2018-03-25T06:39:23.664Z,55.47
2018-03-25T06:41:51.994Z,51.53
2018-03-25T06:44:21.116Z,53.67
2018-03-25T06:46:49.441Z,52.37
2018-03-25T06:49:17.775Z,51.07
2018-03-25T06:51:46.078Z,50.17
2018-03-25T06:54:14.514Z,51.70
2018-03-25T06:56:42.805Z,51.67
2018-03-25T06:59:12.023Z,51.60
2018-03-25T07:01:40.341Z,56.03
2018-03-25T07:04:08.667Z,56.37
2018-03-25T07:06:36.988Z,55.07
2018-03-25T07:09:05.314Z,51.10
2018-03-25T07:11:33.655Z,53.37
2018-03-25T07:14:01.966Z,49.60
2018-03-25T07:16:30.293Z,50.70
2018-03-25T07:18:59.409Z,52.53
2018-03-25T07:21:27.739Z,50.03
2018-03-25T07:23:56.094Z,54.00
2018-03-25T07:26:24.447Z,49.40
2018-03-25T07:28:52.795Z,53.40
2018-03-25T07:31:21.097Z,53.53
2018-03-25T07:33:50.171Z,51.80
2018-03-25T07:36:18.488Z,51.20
2018-03-25T07:38:47.594Z,49.30
2018-03-25T07:41:15.952Z,49.67
2018-03-25T07:43:44.534Z,48.37
2018-03-25T07:46:12.846Z,49.87
2018-03-25T07:48:41.929Z,49.60
2018-03-25T07:51:10.298Z,50.60
2018-03-25T07:53:38.666Z,49.07
2018-03-25T07:56:06.988Z,48.70
2018-03-25T07:58:36.096Z,51.03
2018-03-25T08:01:04.430Z,48.80
2018-03-25T08:03:32.745Z,49.83
2018-03-25T08:06:01.824Z,50.20
2018-03-25T08:08:30.147Z,49.90
2018-03-25T08:10:58.464Z,50.47
2018-03-25T08:13:27.058Z,51.10
2018-03-25T08:15:55.355Z,47.20
2018-03-25T08:18:23.674Z,49.37
2018-03-25T08:20:52.002Z,48.60
2018-03-25T08:23:20.366Z,50.90
2018-03-25T08:25:48.688Z,51.47
2018-03-25T08:28:17.008Z,50.50
2018-03-25T08:30:45.348Z,52.50
2018-03-25T08:33:13.686Z,50.40
2018-03-25T08:35:42.046Z,49.63
2018-03-25T08:38:11.125Z,49.17
2018-03-25T08:40:40.216Z,51.50
2018-03-25T08:43:08.528Z,51.90
2018-03-25T08:45:37.614Z,50.23
2018-03-25T08:48:05.950Z,52.47
2018-03-25T08:50:34.270Z,49.70
2018-03-25T08:53:02.591Z,49.57
2018-03-25T08:55:30.922Z,51.03
2018-03-25T08:57:59.237Z,49.23
2018-03-25T09:00:28.328Z,50.13
2018-03-25T09:02:57.404Z,51.40
2018-03-25T09:05:25.708Z,52.17
2018-03-25T09:07:54.794Z,52.33
2018-03-25T09:10:23.860Z,50.50
2018-03-25T09:12:52.178Z,54.30
2018-03-25T09:15:20.506Z,51.50
2018-03-25T09:17:48.812Z,52.90
2018-03-25T09:20:17.134Z,54.40
2018-03-25T09:22:45.466Z,53.87
2018-03-25T09:25:14.478Z,53.30
2018-03-25T09:27:42.816Z,54.47
2018-03-25T09:30:11.152Z,53.20
2018-03-25T09:32:39.510Z,51.70
2018-03-25T09:35:07.842Z,56.27
2018-03-25T09:37:36.230Z,54.43
2018-03-25T09:40:05.408Z,53.70
2018-03-25T09:42:33.738Z,55.40
2018-03-25T09:45:02.172Z,54.67
2018-03-25T09:47:30.506Z,55.30
2018-03-25T09:49:58.852Z,55.90
2018-03-25T09:52:27.170Z,55.20
2018-03-25T09:54:55.481Z,53.93
2018-03-25T09:57:23.796Z,58.07
2018-03-25T09:59:52.124Z,59.20
2018-03-25T10:02:25.927Z,57.90
2018-03-25T10:04:54.291Z,55.63
2018-03-25T10:07:24.366Z,55.40
2018-03-25T10:09:52.695Z,55.83
2018-03-25T10:12:21.818Z,55.77
2018-03-25T10:14:50.185Z,56.10
2018-03-25T10:17:18.668Z,54.43
2018-03-25T10:19:47.086Z,55.53
2018-03-25T10:22:15.479Z,56.27
2018-03-25T10:24:43.851Z,60.53
2018-03-25T10:27:13.026Z,59.20
2018-03-25T10:29:41.354Z,55.60
2018-03-25T10:32:09.744Z,58.60
2018-03-25T10:34:38.127Z,57.27
2018-03-25T10:37:06.577Z,58.17
2018-03-25T10:39:34.928Z,55.33
2018-03-25T10:42:04.032Z,60.20
2018-03-25T10:44:33.113Z,60.00
2018-03-25T10:47:01.449Z,56.00
2018-03-25T10:49:29.821Z,58.40
2018-03-25T10:51:58.127Z,55.20
2018-03-25T10:54:26.457Z,53.57
2018-03-25T10:56:55.575Z,54.83
2018-03-25T10:59:23.922Z,57.67
2018-03-25T11:01:53.051Z,54.60
2018-03-25T11:04:22.150Z,54.70
2018-03-25T11:06:50.478Z,56.80
2018-03-25T11:09:18.833Z,54.93
2018-03-25T11:11:47.181Z,55.57
2018-03-25T11:14:15.493Z,55.80
2018-03-25T11:16:43.900Z,56.20
2018-03-25T11:19:12.221Z,56.37
2018-03-25T11:21:40.535Z,55.60
2018-03-25T11:24:08.884Z,56.70
2018-03-25T11:26:37.219Z,58.53
2018-03-25T11:29:05.527Z,58.20
2018-03-25T11:31:33.851Z,57.20
2018-03-25T11:34:02.265Z,56.63
2018-03-25T11:36:30.595Z,58.07
2018-03-25T11:38:58.931Z,55.70
2018-03-25T11:41:27.237Z,55.53
2018-03-25T11:43:55.596Z,56.73
2018-03-25T11:46:23.939Z,56.17
2018-03-25T11:48:53.045Z,55.67
2018-03-25T11:51:22.865Z,58.97
2018-03-25T11:53:51.971Z,56.87
2018-03-25T11:56:20.311Z,56.00
2018-03-25T11:58:48.620Z,55.10
2018-03-25T12:01:16.940Z,54.00
2018-03-25T12:03:45.255Z,54.67
2018-03-25T12:06:13.602Z,54.60
2018-03-25T12:08:41.975Z,54.80
2018-03-25T12:11:10.392Z,53.50
2018-03-25T12:13:38.646Z,54.07
2018-03-25T12:16:07.007Z,56.17
2018-03-25T12:18:36.094Z,54.80
2018-03-25T12:21:05.206Z,56.27
2018-03-25T12:23:33.528Z,57.17
2018-03-25T12:26:01.873Z,58.23
2018-03-25T12:28:30.957Z,56.70
2018-03-25T12:30:59.275Z,59.50
2018-03-25T12:33:27.579Z,55.50
2018-03-25T12:35:55.885Z,59.73
2018-03-25T12:38:24.210Z,59.33
2018-03-25T12:40:53.201Z,57.33
2018-03-25T12:43:22.293Z,58.20
2018-03-25T12:45:51.395Z,60.70
2018-03-25T12:48:20.481Z,57.60
2018-03-25T12:50:48.807Z,56.07
2018-03-25T12:53:17.214Z,55.57
2018-03-25T12:55:45.527Z,56.50
2018-03-25T12:58:13.857Z,57.53
2018-03-25T13:00:42.169Z,57.20
2018-03-25T13:03:10.494Z,57.90
2018-03-25T13:05:39.558Z,58.53
2018-03-25T13:08:07.885Z,54.60
2018-03-25T13:10:37.083Z,56.13
2018-03-25T13:13:05.421Z,54.23
2018-03-25T13:15:34.509Z,52.80
2018-03-25T13:18:02.833Z,52.70
2018-03-25T13:20:31.928Z,52.10
2018-03-25T13:23:01.033Z,52.13
2018-03-25T13:25:30.141Z,51.33
2018-03-25T13:27:59.238Z,50.37
2018-03-25T13:30:28.339Z,51.63
2018-03-25T13:32:57.469Z,50.80
2018-03-25T13:35:25.852Z,51.50
2018-03-25T13:37:54.179Z,49.50
2018-03-25T13:40:22.489Z,52.80
2018-03-25T13:42:51.571Z,54.43
2018-03-25T13:45:20.680Z,49.63
2018-03-25T13:47:49.775Z,47.50
2018-03-25T13:50:18.859Z,47.23
2018-03-25T13:52:47.190Z,49.17
2018-03-25T13:55:15.519Z,44.90
2018-03-25T13:57:43.845Z,41.30
2018-03-25T14:00:12.240Z,43.50
2018-03-25T14:02:40.565Z,44.47
2018-03-25T14:05:08.883Z,43.23
2018-03-25T14:07:37.974Z,41.00
2018-03-25T14:10:07.049Z,41.10
2018-03-25T14:12:35.363Z,44.90
2018-03-25T14:15:04.463Z,41.57
2018-03-25T14:17:33.566Z,41.20
2018-03-25T14:20:02.705Z,38.30
2018-03-25T14:22:31.019Z,41.50
2018-03-25T14:24:59.385Z,39.70
2018-03-25T14:27:27.716Z,40.17
2018-03-25T14:29:56.799Z,38.37
2018-03-25T14:32:25.134Z,37.90
2018-03-25T14:34:53.441Z,37.50
2018-03-25T14:37:21.790Z,36.97
2018-03-25T14:39:50.116Z,36.30
2018-03-25T14:42:18.451Z,35.43
2018-03-25T14:44:46.784Z,33.90
2018-03-25T14:47:15.121Z,34.53
2018-03-25T14:49:43.435Z,31.77
2018-03-25T14:52:11.782Z,32.40
2018-03-25T14:54:40.176Z,31.47
2018-03-25T14:57:08.504Z,30.30
2018-03-25T14:59:37.595Z,31.20
2018-03-25T15:02:05.941Z,29.60
2018-03-25T15:04:35.157Z,30.47
2018-03-25T15:07:03.474Z,30.03
2018-03-25T15:09:32.562Z,29.43
2018-03-25T15:12:00.971Z,30.33
2018-03-25T15:14:30.067Z,28.53
2018-03-25T15:16:59.164Z,29.00
2018-03-25T15:19:28.278Z,28.67
2018-03-25T15:21:56.644Z,29.47
2018-03-25T15:24:25.740Z,29.60
2018-03-25T15:26:54.875Z,29.60
2018-03-25T15:29:23.236Z,28.40
2018-03-25T15:31:52.381Z,29.10
2018-03-25T15:34:21.561Z,27.17
2018-03-25T15:36:49.951Z,28.20
2018-03-25T15:39:18.270Z,28.17
2018-03-25T15:41:46.583Z,27.73
2018-03-25T15:44:15.696Z,27.87
2018-03-25T15:46:44.015Z,26.30
2018-03-25T15:49:12.322Z,25.47
2018-03-25T15:51:40.637Z,26.60
2018-03-25T15:54:08.974Z,27.90
2018-03-25T15:56:37.524Z,26.80
2018-03-25T15:59:06.058Z,27.70
2018-03-25T16:01:35.267Z,27.20
2018-03-25T16:04:04.352Z,26.73
2018-03-25T16:06:32.687Z,25.47
2018-03-25T16:09:01.019Z,25.17
2018-03-25T16:11:29.419Z,26.17
2018-03-25T16:13:58.728Z,25.80
2018-03-25T16:16:27.081Z,24.70
2018-03-25T16:18:55.434Z,23.07
2018-03-25T16:21:23.757Z,22.07
2018-03-25T16:23:52.067Z,21.83
2018-03-25T16:26:21.266Z,22.57
2018-03-25T16:28:49.836Z,21.10
2018-03-25T16:31:19.031Z,21.10
2018-03-25T16:33:47.808Z,21.63
2018-03-25T16:36:16.132Z,21.90
2018-03-25T16:38:45.236Z,21.03
2018-03-25T16:41:14.531Z,18.53
2018-03-25T16:43:42.870Z,19.27
2018-03-25T16:46:11.409Z,20.73
2018-03-25T16:48:39.970Z,18.23
2018-03-25T16:51:09.077Z,19.67
2018-03-25T16:53:37.603Z,21.23
2018-03-25T16:56:05.990Z,20.07
2018-03-25T16:58:34.513Z,22.60
2018-03-25T17:01:03.701Z,22.37
2018-03-25T17:03:32.039Z,22.50
2018-03-25T17:06:01.134Z,24.30
2018-03-25T17:08:30.374Z,22.63
2018-03-25T17:10:58.720Z,24.47
2018-03-25T17:13:27.875Z,24.50
2018-03-25T17:15:56.229Z,25.37
2018-03-25T17:18:24.559Z,26.33
2018-03-25T17:20:52.874Z,25.90
2018-03-25T17:23:22.025Z,26.13
2018-03-25T17:25:50.406Z,27.73
2018-03-25T17:28:18.734Z,26.30
2018-03-25T17:30:47.055Z,26.97
2018-03-25T17:33:15.451Z,27.13
2018-03-25T17:35:43.790Z,27.13
2018-03-25T17:38:12.120Z,26.67
2018-03-25T17:40:40.477Z,28.60
2018-03-25T17:43:08.787Z,30.13
2018-03-25T17:45:37.207Z,29.30
2018-03-25T17:48:05.538Z,30.00
2018-03-25T17:50:33.908Z,30.67
2018-03-25T17:53:02.275Z,28.40
2018-03-25T17:55:31.354Z,31.20
2018-03-25T17:57:59.668Z,29.37
2018-03-25T18:00:27.984Z,30.73
2018-03-25T18:02:56.300Z,31.43
2018-03-25T18:05:25.421Z,30.93
2018-03-25T18:07:54.213Z,29.60
2018-03-25T18:10:23.303Z,31.60
2018-03-25T18:12:52.401Z,27.17
2018-03-25T18:15:21.495Z,27.33
2018-03-25T18:17:50.588Z,29.43
2018-03-25T18:20:18.911Z,29.00
2018-03-25T18:22:47.207Z,32.37
2018-03-25T18:25:15.514Z,33.67
2018-03-25T18:27:43.959Z,32.23
2018-03-25T18:30:12.291Z,38.10
2018-03-25T18:32:40.848Z,43.73
2018-03-25T18:35:09.188Z,45.97
2018-03-25T18:37:38.247Z,45.37
2018-03-25T18:40:06.568Z,44.27
2018-03-25T18:42:35.728Z,44.30
2018-03-25T18:45:04.103Z,44.00
2018-03-25T18:47:32.530Z,44.57
2018-03-25T18:50:00.909Z,48.67
2018-03-25T18:52:29.341Z,46.23
2018-03-25T18:54:57.698Z,45.97
2018-03-25T18:57:26.063Z,44.13
2018-03-25T18:59:54.442Z,45.30
2018-03-25T19:02:22.760Z,48.30
2018-03-25T19:04:51.081Z,46.50
2018-03-25T19:07:19.517Z,45.47
2018-03-25T19:09:47.935Z,43.60
2018-03-25T19:12:16.273Z,45.87
2018-03-25T19:14:44.609Z,47.60
2018-03-25T19:17:13.203Z,45.07
2018-03-25T19:19:42.577Z,47.60
2018-03-25T19:22:10.957Z,48.93
2018-03-25T19:24:39.528Z,47.80
2018-03-25T19:27:08.201Z,45.93
2018-03-25T19:29:36.604Z,48.90
2018-03-25T19:32:05.210Z,51.97
2018-03-25T19:34:33.621Z,54.20
2018-03-25T19:37:01.941Z,51.30
2018-03-25T19:39:31.132Z,53.70
2018-03-25T19:41:59.687Z,55.07
2018-03-25T19:44:28.331Z,57.93
2018-03-25T19:46:56.752Z,57.70
2018-03-25T19:49:25.141Z,57.47
2018-03-25T19:51:53.526Z,62.27
2018-03-25T19:54:25.485Z,61.97
2018-03-25T19:56:55.236Z,64.27
2018-03-25T19:59:24.444Z,64.47
2018-03-25T20:01:54.680Z,69.53
2018-03-25T20:04:26.393Z,67.73
2018-03-25T20:06:54.709Z,68.97
2018-03-25T20:09:23.811Z,65.70
2018-03-25T20:11:52.933Z,66.67
2018-03-25T20:14:22.130Z,68.40
2018-03-25T20:16:50.466Z,67.80
2018-03-25T20:19:18.799Z,64.03
2018-03-25T20:21:48.213Z,64.33
2018-03-25T20:24:17.284Z,64.57
2018-03-25T20:26:45.613Z,62.50
2018-03-25T20:29:13.996Z,61.57
2018-03-25T20:31:42.382Z,57.97
2018-03-25T20:34:10.762Z,53.40
2018-03-25T20:36:39.099Z,54.33
2018-03-25T20:39:07.416Z,49.93
2018-03-25T20:41:35.746Z,47.23
2018-03-25T20:44:04.083Z,46.23
2018-03-25T20:46:32.408Z,44.53
2018-03-25T20:49:00.751Z,45.57
2018-03-25T20:51:29.099Z,46.30
2018-03-25T20:53:58.186Z,42.27
2018-03-25T20:56:26.502Z,43.80
2018-03-25T20:58:54.825Z,42.83
2018-03-25T21:01:23.157Z,37.80
2018-03-25T21:03:52.234Z,41.00
2018-03-25T21:06:20.544Z,41.50
2018-03-25T21:08:49.645Z,38.40
2018-03-25T21:11:18.794Z,37.20
2018-03-25T21:13:47.867Z,34.23
2018-03-25T21:16:16.188Z,31.50
2018-03-25T21:18:44.510Z,32.23
2018-03-25T21:21:12.823Z,28.00
2018-03-25T21:23:41.161Z,27.80
2018-03-25T21:26:10.250Z,26.97
2018-03-25T21:28:38.566Z,26.47
2018-03-25T21:31:06.879Z,25.33
2018-03-25T21:33:35.225Z,25.63
2018-03-25T21:36:03.544Z,24.93
2018-03-25T21:38:31.861Z,24.27
2018-03-25T21:41:00.944Z,23.97
2018-03-25T21:43:29.240Z,24.47
2018-03-25T21:45:57.570Z,25.00
2018-03-25T21:48:25.878Z,22.80
2018-03-25T21:50:54.190Z,23.70
2018-03-25T21:53:22.514Z,26.70
2018-03-25T21:55:50.890Z,24.77
2018-03-25T21:58:19.216Z,25.70
2018-03-25T22:00:47.554Z,27.50
2018-03-25T22:03:15.864Z,24.20
2018-03-25T22:05:44.202Z,27.50
2018-03-25T22:08:13.280Z,25.67
2018-03-25T22:10:41.582Z,26.10
2018-03-25T22:13:10.656Z,27.70
2018-03-25T22:15:39.002Z,25.47
2018-03-25T22:18:08.093Z,24.30
2018-03-25T22:20:36.408Z,27.37
2018-03-25T22:23:04.744Z,27.27
2018-03-25T22:25:33.074Z,27.93
2018-03-25T22:28:01.388Z,28.17
2018-03-25T22:30:30.467Z,27.47
2018-03-25T22:32:58.781Z,26.90
2018-03-25T22:35:27.102Z,27.67
2018-03-25T22:37:55.414Z,25.87
2018-03-25T22:40:23.736Z,29.30
2018-03-25T22:42:52.038Z,33.30
2018-03-25T22:45:20.363Z,29.03
2018-03-25T22:47:48.676Z,28.13
2018-03-25T22:50:16.983Z,28.50
2018-03-25T22:52:45.286Z,24.70
2018-03-25T22:55:13.652Z,23.70
2018-03-25T22:57:41.964Z,25.90
2018-03-25T23:00:10.360Z,25.00
2018-03-25T23:02:38.685Z,26.00
2018-03-25T23:05:07.016Z,23.80
2018-03-25T23:07:35.312Z,23.37
2018-03-25T23:10:04.402Z,28.30
2018-03-25T23:12:32.719Z,31.37
2018-03-25T23:15:01.020Z,33.57
2018-03-25T23:17:29.323Z,31.63
2018-03-25T23:19:57.767Z,31.53
2018-03-25T23:22:26.089Z,32.93
2018-03-25T23:24:54.411Z,39.87
2018-03-25T23:27:23.479Z,37.40
2018-03-25T23:29:51.792Z,40.27
2018-03-25T23:32:21.031Z,45.93
2018-03-25T23:34:49.345Z,43.50
2018-03-25T23:37:17.671Z,40.20
2018-03-25T23:39:46.745Z,39.00
2018-03-25T23:42:15.057Z,46.87
2018-03-25T23:44:43.373Z,48.60
2018-03-25T23:47:11.691Z,52.30
2018-03-25T23:49:40.005Z,49.90
2018-03-25T23:52:08.337Z,48.53
2018-03-25T23:54:36.642Z,51.30
2018-03-25T23:57:05.716Z,49.47
2018-03-25T23:59:34.033Z,49.70
